Luqa, Malta

3:35 AM CEST on September 17, 2014 (GMT +0200)
Luqa | Change Station
CLOSE
Current Station
Airport
Location: Luqa,
Elevation: 299 ft
Nearby Weather Stations

Elev 299 ft 35.86 °N, 14.48 °E | Updated 20 minutes ago

Partly Cloudy
Partly Cloudy
77 °F
Feels Like 77 °F
N
7
Wind Variable Wind from East

Today
High -- | Low -- °F
--% Chance of Precip.
Yesterday
High -- | Low -- °F
Precip. -- in
6:45 AM 7:06 PM
Last Quarter, 40% visible
Pressure 29.89 in
Visibility 3.7 miles
Clouds Few 600 ft
Dew Point 75 °F
Humidity 94%
Rainfall 0.00 in
Snow Depth Not available.
UV 0 out of 12
Pollen Not available.
Air Quality Not available.
Flu Activity Not available.
METAR LMML 170115Z AUTO 08006KT 6000NDV BR FEW006/// 25/24 Q1012

More Conditions Fewer Conditions

Pressure 29.89 in
Visibility 3.7 miles
Clouds Few 600 ft
Dew Point 75 °F
Humidity 94%
Rainfall 0.00 in
Snow Depth Not available.
UV 0 out of 12
Pollen Not available.
Air Quality Not available.
Flu Activity Not available.
METAR LMML 170115Z AUTO 08006KT 6000NDV BR FEW006/// 25/24 Q1012

More Conditions Fewer Conditions

10-Day Weather Forecast

Almanac

Astronomy

Sep. 17, 2014 Rise Set
Actual Time 6:45 AM CEST 7:06 PM CEST
Civil Twilight 6:20 AM CEST 7:32 PM CEST
Nautical Twilight 5:50 AM CEST 8:02 PM CEST
Astronomical Twilight 5:19 AM CEST 8:32 PM CEST
Moon 12:39 AM CEST 2:55 PM CEST
Length of Visible Light 13h 11m
Length of Day
12h 20m
Tomorrow will be 2m 13s shorter.
Last Quarter, 40% of the Moon is Illuminated
Sep 16
Last Quarter
Sep 24
New
Oct 1
First Quarter
Oct 8
Full
Oct 15
Last Quarter

Yesterday's Extremes

Country Highs Country Lows

Community

WunderPhotos

Upload Photos

1,753,943 photos uploaded!

Nearby

Snow Depth

Not available.

Earthquake Activity

City Distance Mag. Time & Date
No recent earthquake activity has been reported nearby.
Minimum magnitude displayed is 2.5.

Coastal Water Temperatures

Place Temperature
No Stations Reporting

Nearby Weather Stations